Time;durP1;ratioP1;P1;durP2;ratioP2;P2;SDS_P1;SDS_P2;PMS_P1;PMS_P2;Temp;Humidity;BMP_temperature;BMP_pressure;BME280_temperature;BME280_humidity;BME280_pressure;Samples;Min_cycle;Max_cycle;Signal;HPM_P1;HPM_P2
2022/04/14 00:01:54;;;;;;;8.20;3.65;;;;;;;7.69;70.93;100733.23;1700477;83;21079;-76
2022/04/14 00:04:21;;;;;;;8.10;3.30;;;;;;;7.71;70.89;100734.34;1696305;83;21075;-77
2022/04/14 00:06:48;;;;;;;6.30;3.45;;;;;;;7.72;70.87;100728.77;1692698;83;21581;-77
2022/04/14 00:09:14;;;;;;;9.58;3.65;;;;;;;7.75;70.88;100734.16;1668194;86;20992;-76
2022/04/14 00:11:42;;;;;;;6.45;3.40;;;;;;;7.75;70.80;100734.95;1693430;83;21549;-76
2022/04/14 00:14:09;;;;;;;6.00;3.30;;;;;;;7.74;70.77;100736.00;1696020;83;21156;-76
2022/04/14 00:16:36;;;;;;;7.22;3.45;;;;;;;7.75;70.72;100729.64;1695972;83;21518;-77
2022/04/14 00:19:02;;;;;;;8.03;3.35;;;;;;;7.78;70.67;100732.88;1724623;83;21068;-77
2022/04/14 00:21:30;;;;;;;6.72;3.52;;;;;;;7.77;70.49;100734.73;1717972;83;21590;-77
2022/04/14 00:23:56;;;;;;;6.33;3.42;;;;;;;7.77;70.43;100736.06;1696190;83;20984;-78
2022/04/14 00:26:23;;;;;;;8.28;4.12;;;;;;;7.79;70.38;100735.82;1705388;83;21209;-76
2022/04/14 00:28:53;;;;;;;7.95;4.03;;;;;;;7.81;70.32;100735.08;1696226;83;21518;-76
2022/04/14 00:31:21;;;;;;;7.22;3.30;;;;;;;7.82;70.22;100731.36;1690534;83;22018;-76
2022/04/14 00:33:49;;;;;;;6.92;3.80;;;;;;;7.81;70.15;100735.87;1722847;83;21073;-76
2022/04/14 00:36:16;;;;;;;6.80;3.47;;;;;;;7.82;70.01;100730.03;1720436;83;21161;-75
2022/04/14 00:38:42;;;;;;;8.30;3.52;;;;;;;7.80;69.88;100742.25;1718373;83;21304;-76
2022/04/14 00:41:10;;;;;;;8.65;4.00;;;;;;;7.79;69.77;100741.94;1693879;83;21087;-75
2022/04/14 00:43:38;;;;;;;8.65;3.90;;;;;;;7.75;69.73;100738.14;1709211;83;20993;-76
2022/04/14 00:46:07;;;;;;;8.88;4.53;;;;;;;7.71;69.70;100737.00;1689206;84;21011;-76
2022/04/14 00:48:35;;;;;;;7.90;4.50;;;;;;;7.68;69.69;100743.58;1686815;82;21071;-75
2022/04/14 00:51:03;;;;;;;8.25;4.75;;;;;;;7.62;69.70;100747.16;1696016;84;21175;-76
2022/04/14 00:53:31;;;;;;;10.03;5.20;;;;;;;7.57;69.73;100747.56;1695985;84;21047;-76
2022/04/14 00:55:59;;;;;;;7.50;4.47;;;;;;;7.54;69.80;100750.72;1702274;83;21056;-76
2022/04/14 00:58:28;;;;;;;7.90;4.30;;;;;;;7.50;69.81;100746.36;1725977;83;21144;-76
2022/04/14 01:00:54;;;;;;;8.60;4.45;;;;;;;7.45;69.82;100742.27;1711855;83;21739;-76
2022/04/14 01:03:24;;;;;;;7.60;3.77;;;;;;;7.45;69.88;100750.25;1695674;83;21944;-77
2022/04/14 01:05:52;;;;;;;6.72;3.75;;;;;;;7.42;69.88;100742.20;1695588;84;21007;-78
2022/04/14 01:08:20;;;;;;;7.03;3.75;;;;;;;7.41;69.90;100739.80;1665931;84;21023;-77
2022/04/14 01:10:49;;;;;;;8.35;4.25;;;;;;;7.39;69.88;100736.55;1694609;84;21030;-77
2022/04/14 01:13:18;;;;;;;8.15;4.35;;;;;;;7.41;69.89;100733.16;1733745;82;21093;-76
2022/04/14 01:15:45;;;;;;;6.87;3.10;;;;;;;7.42;69.88;100733.43;1730894;82;21137;-77
2022/04/14 01:18:16;;;;;;;5.80;2.92;;;;;;;7.43;69.87;100739.02;1731045;82;21015;-77
2022/04/14 01:20:44;;;;;;;5.55;2.77;;;;;;;7.44;69.91;100739.34;1718446;83;21106;-77
2022/04/14 01:23:12;;;;;;;4.78;2.70;;;;;;;7.45;69.86;100743.60;1701342;84;21034;-77
2022/04/14 01:25:40;;;;;;;4.80;2.70;;;;;;;7.45;69.82;100740.94;1701256;84;21133;-77
2022/04/14 01:28:08;;;;;;;5.58;2.75;;;;;;;7.46;69.72;100743.88;1701455;84;21017;-77
2022/04/14 01:30:40;;;;;;;5.08;2.30;;;;;;;7.47;69.66;100740.20;1716258;83;21035;-75
2022/04/14 01:33:04;;;;;;;5.45;2.42;;;;;;;7.47;69.60;100738.34;1725550;83;21120;-75
2022/04/14 01:35:31;;;;;;;4.78;2.20;;;;;;;7.50;69.54;100739.71;1666806;86;21106;-75
2022/04/14 01:37:59;;;;;;;5.00;2.12;;;;;;;7.51;69.34;100746.14;1698693;84;21031;-75
2022/04/14 01:40:26;;;;;;;4.42;2.20;;;;;;;7.54;69.14;100750.19;1679366;84;21254;-75
2022/04/14 01:42:55;;;;;;;5.58;2.05;;;;;;;7.58;69.00;100746.55;1700481;82;21098;-76
2022/04/14 01:45:22;;;;;;;4.83;1.87;;;;;;;7.60;68.84;100750.59;1699030;84;21018;-75
2022/04/14 01:47:49;;;;;;;4.65;1.87;;;;;;;7.64;68.60;100742.97;1683742;84;21177;-76
2022/04/14 01:50:16;;;;;;;5.87;2.77;;;;;;;7.65;68.42;100745.37;1701919;84;20980;-76
2022/04/14 01:52:44;;;;;;;5.40;2.70;;;;;;;7.68;68.26;100747.57;1736047;82;21581;-75
2022/04/14 01:55:11;;;;;;;6.42;3.47;;;;;;;7.71;68.01;100746.30;1648161;84;21028;-76
2022/04/14 01:57:40;;;;;;;7.45;3.05;;;;;;;7.71;67.72;100737.80;1684769;83;21050;-77
2022/04/14 02:00:09;;;;;;;6.53;3.47;;;;;;;7.72;67.59;100735.42;1666437;86;21116;-76
2022/04/14 02:02:36;;;;;;;6.47;3.08;;;;;;;7.74;67.40;100737.86;1698950;84;21542;-77
2022/04/14 02:05:03;;;;;;;6.53;2.72;;;;;;;7.75;67.27;100743.45;1695880;84;21083;-76
2022/04/14 02:07:31;;;;;;;7.20;3.20;;;;;;;7.76;67.19;100745.06;1705667;83;21032;-77
2022/04/14 02:09:58;;;;;;;6.37;3.15;;;;;;;7.80;67.03;100746.73;1710977;83;20980;-77
2022/04/14 02:12:26;;;;;;;6.25;3.15;;;;;;;7.80;66.81;100754.22;1710980;83;20976;-77
2022/04/14 02:14:54;;;;;;;7.97;3.25;;;;;;;7.81;66.57;100756.34;1703046;83;21030;-78
2022/04/14 02:17:22;;;;;;;7.17;3.25;;;;;;;7.81;66.43;100760.34;1699004;83;20956;-78
2022/04/14 02:19:49;;;;;;;6.67;3.20;;;;;;;7.79;66.42;100759.23;1710672;83;20997;-78
2022/04/14 02:22:18;;;;;;;6.60;3.15;;;;;;;7.77;66.34;100762.66;1698510;83;21214;-78
2022/04/14 02:24:46;;;;;;;5.33;3.02;;;;;;;7.75;66.31;100765.53;1710255;82;21050;-78
2022/04/14 02:27:13;;;;;;;6.05;3.52;;;;;;;7.71;66.22;100772.37;1735742;82;21056;-77
2022/04/14 02:29:41;;;;;;;6.40;3.50;;;;;;;7.68;66.22;100778.14;1733215;83;21148;-78
2022/04/14 02:32:09;;;;;;;7.00;3.52;;;;;;;7.63;66.15;100772.70;1691826;82;21007;-77
2022/04/14 02:34:36;;;;;;;6.25;3.27;;;;;;;7.60;66.14;100770.53;1702392;84;21117;-78
2022/04/14 02:37:03;;;;;;;7.12;3.30;;;;;;;7.58;66.06;100765.16;1703799;82;21096;-77
2022/04/14 02:39:32;;;;;;;5.78;3.30;;;;;;;7.55;66.02;100765.61;1724789;82;21174;-76
2022/04/14 02:42:00;;;;;;;5.30;2.30;;;;;;;7.51;66.01;100777.23;1690761;82;21170;-76
2022/04/14 02:44:28;;;;;;;4.85;2.60;;;;;;;7.44;65.94;100769.37;1703747;83;21145;-76
2022/04/14 02:46:55;;;;;;;6.80;2.47;;;;;;;7.41;65.85;100777.00;1697173;83;20963;-76
2022/04/14 02:49:23;;;;;;;6.12;2.80;;;;;;;7.40;65.83;100778.82;1680163;85;21002;-76
2022/04/14 02:51:50;;;;;;;6.35;2.83;;;;;;;7.37;65.85;100771.34;1666122;84;21030;-75
2022/04/14 02:54:17;;;;;;;5.60;2.42;;;;;;;7.37;65.83;100773.16;1666742;86;21174;-76
2022/04/14 02:56:44;;;;;;;5.87;2.80;;;;;;;7.35;65.79;100769.94;1695858;84;21145;-76
2022/04/14 02:59:10;;;;;;;5.58;3.00;;;;;;;7.35;65.75;100780.57;1695727;84;21098;-78
2022/04/14 03:01:37;;;;;;;5.65;2.90;;;;;;;7.34;65.72;100778.94;1711417;82;21035;-78
2022/04/14 03:04:04;;;;;;;6.17;2.65;;;;;;;7.32;65.64;100784.48;1693788;84;21551;-77
2022/04/14 03:06:30;;;;;;;4.30;2.25;;;;;;;7.33;65.61;100781.31;1700729;84;21180;-78
2022/04/14 03:08:58;;;;;;;7.28;2.90;;;;;;;7.31;65.54;100787.39;1701345;84;21062;-77
2022/04/14 03:11:26;;;;;;;5.17;2.47;;;;;;;7.30;65.50;100786.56;1699600;84;21049;-76
2022/04/14 03:13:53;;;;;;;5.42;2.62;;;;;;;7.29;65.48;100790.27;1738451;82;21550;-77
2022/04/14 03:16:20;;;;;;;5.05;2.20;;;;;;;7.29;65.39;100785.75;1716384;82;21062;-78
2022/04/14 03:18:48;;;;;;;3.40;1.67;;;;;;;7.31;65.23;100796.69;1694060;84;21164;-77
2022/04/14 03:21:14;;;;;;;3.87;1.40;;;;;;;7.33;65.19;100788.76;1652393;85;21087;-77
2022/04/14 03:23:42;;;;;;;4.33;1.80;;;;;;;7.33;65.08;100788.76;1672206;84;21629;-76
2022/04/14 03:26:09;;;;;;;5.20;1.98;;;;;;;7.35;65.00;100788.55;1689613;83;21099;-77
2022/04/14 03:28:37;;;;;;;4.30;2.02;;;;;;;7.37;64.97;100787.77;1714087;83;21044;-77
2022/04/14 03:31:04;;;;;;;4.92;2.40;;;;;;;7.40;64.94;100785.98;1666216;84;21387;-77
2022/04/14 03:33:33;;;;;;;6.35;2.80;;;;;;;7.43;64.84;100796.97;1666542;84;21055;-77
2022/04/14 03:36:00;;;;;;;5.20;2.52;;;;;;;7.45;64.66;100810.84;1723919;83;20956;-77
2022/04/14 03:38:27;;;;;;;4.05;2.20;;;;;;;7.49;64.59;100813.85;1720419;83;21065;-78
2022/04/14 03:40:54;;;;;;;2.52;1.50;;;;;;;7.52;64.46;100817.38;1696084;83;21122;-77
2022/04/14 03:43:21;;;;;;;2.33;1.17;;;;;;;7.56;64.28;100814.55;1696306;84;21051;-78
2022/04/14 03:45:48;;;;;;;2.83;1.40;;;;;;;7.59;64.08;100815.41;1701067;83;21009;-76
2022/04/14 03:48:15;;;;;;;4.87;1.37;;;;;;;7.64;63.82;100804.91;1725406;83;21048;-75
2022/04/14 03:50:42;;;;;;;3.40;1.40;;;;;;;7.67;63.68;100803.13;1696011;84;21048;-76
2022/04/14 03:53:08;;;;;;;2.87;1.10;;;;;;;7.71;63.48;100804.80;1723825;83;21502;-77
2022/04/14 03:55:35;;;;;;;2.72;1.27;;;;;;;7.74;63.19;100810.98;1724233;83;21110;-76
2022/04/14 03:58:01;;;;;;;3.67;1.12;;;;;;;7.77;63.05;100808.39;1719945;82;21015;-77
2022/04/14 04:00:30;;;;;;;6.45;1.30;;;;;;;7.78;62.71;100815.31;1702231;83;21499;-77
2022/04/14 04:02:58;;;;;;;3.02;1.05;;;;;;;7.81;62.72;100813.00;1723051;82;21023;-76
2022/04/14 04:05:24;;;;;;;2.20;0.95;;;;;;;7.85;62.54;100818.66;1731350;82;21044;-76
2022/04/14 04:07:51;;;;;;;2.80;1.10;;;;;;;7.87;62.49;100819.25;1723808;82;21620;-78
2022/04/14 04:10:18;;;;;;;4.25;0.90;;;;;;;7.88;62.32;100819.00;1674184;84;20956;-76
2022/04/14 04:12:46;;;;;;;3.22;1.10;;;;;;;7.91;62.10;100824.38;1671409;85;21020;-77
2022/04/14 04:15:14;;;;;;;2.50;1.10;;;;;;;7.94;62.04;100819.93;1671237;84;21030;-76
2022/04/14 04:17:41;;;;;;;2.25;1.02;;;;;;;7.96;62.01;100816.00;1682778;82;21083;-76
2022/04/14 04:20:11;;;;;;;2.55;1.20;;;;;;;8.01;61.92;100814.48;1711581;82;20953;-75
2022/04/14 04:22:42;;;;;;;4.28;1.35;;;;;;;8.05;61.79;100812.97;1722130;82;21023;-76
2022/04/14 04:25:09;;;;;;;3.72;1.72;;;;;;;8.08;61.61;100821.29;1694720;83;21047;-76
2022/04/14 04:27:36;;;;;;;3.65;1.42;;;;;;;8.10;61.45;100819.22;1670972;84;21023;-76
2022/04/14 04:30:06;;;;;;;3.00;1.00;;;;;;;8.13;61.39;100817.42;1639650;87;21067;-76
2022/04/14 04:32:34;;;;;;;3.05;1.10;;;;;;;8.16;61.21;100824.94;1670819;85;21120;-77
2022/04/14 04:35:03;;;;;;;4.05;1.55;;;;;;;8.18;61.08;100824.16;1639426;87;21715;-78
2022/04/14 04:37:30;;;;;;;3.77;1.30;;;;;;;8.21;61.12;100825.55;1688136;82;20995;-77
2022/04/14 04:39:57;;;;;;;3.37;1.42;;;;;;;8.25;60.96;100824.56;1664161;86;21044;-78
2022/04/14 04:42:24;;;;;;;4.12;2.08;;;;;;;8.27;60.83;100824.62;1728924;83;21047;-78
2022/04/14 04:44:53;;;;;;;7.42;3.08;;;;;;;8.30;60.84;100831.33;1730724;82;21601;-77
2022/04/14 04:47:23;;;;;;;5.58;2.80;;;;;;;8.33;60.68;100830.34;1732973;82;20984;-78
2022/04/14 04:49:51;;;;;;;5.35;2.92;;;;;;;8.36;60.70;100833.05;1736409;82;21081;-77
2022/04/14 04:52:17;;;;;;;5.75;3.22;;;;;;;8.40;60.73;100835.56;1702158;84;20975;-76
2022/04/14 04:54:46;;;;;;;4.97;2.70;;;;;;;8.42;60.51;100834.78;1710529;82;21011;-77
2022/04/14 04:57:12;;;;;;;4.72;2.52;;;;;;;8.45;60.36;100838.30;1700010;84;21156;-77
2022/04/14 04:59:40;;;;;;;3.77;2.08;;;;;;;8.47;60.31;100840.22;1701722;84;21046;-77
2022/04/14 05:02:08;;;;;;;4.03;2.10;;;;;;;8.53;60.32;100845.14;1694241;82;20948;-77
2022/04/14 05:04:35;;;;;;;4.33;2.10;;;;;;;8.56;59.99;100850.80;1692715;82;21097;-77
2022/04/14 05:07:01;;;;;;;4.40;2.05;;;;;;;8.57;59.97;100847.08;1726007;82;21617;-78
2022/04/14 05:09:28;;;;;;;4.12;2.40;;;;;;;8.59;59.78;100846.33;1726303;82;21139;-75
2022/04/14 05:11:56;;;;;;;4.58;2.33;;;;;;;8.62;59.69;100843.69;1706594;83;21061;-77
2022/04/14 05:14:22;;;;;;;4.75;2.33;;;;;;;8.66;59.72;100844.86;1721465;82;21011;-78
2022/04/14 05:16:49;;;;;;;3.87;2.10;;;;;;;8.67;59.60;100841.14;1699722;82;21086;-78
2022/04/14 05:19:15;;;;;;;5.37;2.25;;;;;;;8.68;59.34;100847.55;1694220;84;21042;-78
2022/04/14 05:21:47;;;;;;;4.72;2.05;;;;;;;8.67;59.22;100843.28;1726367;83;21164;-78
2022/04/14 05:24:13;;;;;;;4.08;1.92;;;;;;;8.67;59.05;100847.27;1725489;83;21007;-78
2022/04/14 05:26:41;;;;;;;3.40;1.72;;;;;;;8.67;59.07;100854.45;1698255;83;21106;-78
2022/04/14 05:29:09;;;;;;;3.77;1.85;;;;;;;8.68;59.05;100858.20;1700828;83;21073;-78
2022/04/14 05:31:37;;;;;;;3.77;1.85;;;;;;;8.68;58.92;100858.20;1666609;84;21157;-78
2022/04/14 05:34:04;;;;;;;4.58;2.00;;;;;;;8.70;58.82;100865.97;1638855;87;21460;-78
2022/04/14 05:36:32;;;;;;;3.85;2.02;;;;;;;8.73;58.74;100863.36;1685061;82;21050;-76
2022/04/14 05:38:59;;;;;;;4.05;1.70;;;;;;;8.74;58.58;100858.31;1700994;84;20963;-76
2022/04/14 05:41:26;;;;;;;3.77;1.67;;;;;;;8.77;58.52;100864.50;1707614;83;21094;-79
2022/04/14 05:43:53;;;;;;;4.62;2.40;;;;;;;8.79;58.41;100861.09;1700806;83;21038;-77
2022/04/14 05:46:20;;;;;;;4.83;2.58;;;;;;;8.82;58.25;100863.28;1698460;82;21318;-77
2022/04/14 05:48:49;;;;;;;4.45;2.25;;;;;;;8.83;58.07;100859.56;1679394;84;20937;-76
2022/04/14 05:51:16;;;;;;;4.83;2.33;;;;;;;8.84;58.27;100864.64;1719258;82;21036;-76
2022/04/14 05:53:43;;;;;;;3.45;1.57;;;;;;;8.87;58.36;100868.16;1709652;83;21559;-77
2022/04/14 05:56:09;;;;;;;2.12;1.05;;;;;;;8.91;58.39;100880.48;1711101;83;21134;-77
2022/04/14 05:58:37;;;;;;;2.87;1.30;;;;;;;8.94;58.03;100866.69;1710952;83;22134;-78
2022/04/14 06:01:04;;;;;;;3.50;1.10;;;;;;;8.94;58.01;100869.34;1703912;83;21004;-78
2022/04/14 06:03:31;;;;;;;2.80;1.17;;;;;;;8.98;58.07;100873.67;1697104;83;21057;-79
2022/04/14 06:05:58;;;;;;;3.02;1.30;;;;;;;8.98;57.78;100879.80;1731398;82;21667;-78
2022/04/14 06:08:25;;;;;;;2.85;1.17;;;;;;;8.93;57.53;100875.73;1731739;82;21098;-77
2022/04/14 06:10:53;;;;;;;2.98;1.22;;;;;;;8.93;57.53;100885.05;1721330;81;20998;-78
2022/04/14 06:13:20;;;;;;;3.95;1.55;;;;;;;8.92;57.48;100879.45;1710913;83;21012;-77
2022/04/14 06:15:47;;;;;;;4.12;1.40;;;;;;;8.93;57.57;100893.05;1708636;83;21460;-77
2022/04/14 06:18:14;;;;;;;2.65;1.22;;;;;;;8.95;57.44;100874.98;1711132;83;20977;-78
2022/04/14 06:20:41;;;;;;;3.20;1.30;;;;;;;8.96;57.12;100871.79;1695696;83;21548;-78
2022/04/14 06:23:10;;;;;;;3.05;1.27;;;;;;;8.98;57.02;100872.34;1704358;82;22035;-76
2022/04/14 06:25:38;;;;;;;3.47;1.30;;;;;;;9.00;56.74;100878.25;1696212;84;21015;-78
2022/04/14 06:28:07;;;;;;;2.37;1.02;;;;;;;9.02;56.90;100883.63;1699225;84;21027;-75
2022/04/14 06:30:33;;;;;;;2.95;1.25;;;;;;;9.03;56.75;100879.11;1696425;83;21079;-76
2022/04/14 06:33:04;;;;;;;4.65;1.70;;;;;;;9.07;56.80;100875.72;1696393;84;21070;-77
2022/04/14 06:35:34;;;;;;;3.20;1.60;;;;;;;9.11;56.69;100871.55;1690561;84;21271;-77
2022/04/14 06:38:05;;;;;;;4.00;1.90;;;;;;;9.18;56.67;100886.55;1696249;84;21510;-77
2022/04/14 06:40:35;;;;;;;9.65;2.60;;;;;;;9.23;56.58;100877.33;1695286;83;21181;-77
2022/04/14 06:43:02;;;;;;;5.28;1.90;;;;;;;9.26;56.26;100885.66;1672597;84;21077;-78
2022/04/14 06:45:29;;;;;;;4.90;2.55;;;;;;;9.24;55.88;100886.41;1700689;82;21227;-79
2022/04/14 06:47:57;;;;;;;6.37;2.72;;;;;;;9.16;55.87;100885.48;1717226;82;21473;-76
2022/04/14 06:50:26;;;;;;;4.85;3.00;;;;;;;9.15;56.06;100895.33;1726069;83;21058;-76
2022/04/14 06:52:53;;;;;;;5.92;2.45;;;;;;;9.18;55.95;100890.55;1719525;83;21023;-78
2022/04/14 06:55:22;;;;;;;5.12;3.20;;;;;;;9.19;55.92;100886.86;1703668;84;21117;-80
2022/04/14 06:57:50;;;;;;;5.97;2.83;;;;;;;9.21;55.78;100881.55;1692091;82;21094;-77
2022/04/14 07:00:17;;;;;;;4.92;2.45;;;;;;;9.24;55.73;100894.41;1703595;82;21841;-78
2022/04/14 07:02:54;;;;;;;4.83;2.52;;;;;;;9.26;55.69;100883.52;1685782;82;21047;-76
2022/04/14 07:05:23;;;;;;;4.65;2.58;;;;;;;9.26;55.65;100879.52;1676712;84;21018;-77
2022/04/14 07:07:53;;;;;;;4.60;2.58;;;;;;;9.29;55.88;100893.17;1675014;85;21482;-77
2022/04/14 07:10:20;;;;;;;3.75;1.80;;;;;;;9.33;55.71;100887.64;1698840;82;21051;-76
2022/04/14 07:12:48;;;;;;;4.12;2.15;;;;;;;9.36;55.44;100891.16;1692974;84;21642;-77
2022/04/14 07:15:16;;;;;;;4.12;2.10;;;;;;;9.40;55.53;100891.48;1703420;84;21011;-77
2022/04/14 07:17:44;;;;;;;5.92;2.10;;;;;;;9.44;55.55;100879.28;1724554;82;21114;-78
2022/04/14 07:20:12;;;;;;;5.87;2.12;;;;;;;9.51;55.63;100897.79;1703986;82;21581;-77
2022/04/14 07:22:50;;;;;;;5.00;1.70;;;;;;;9.60;55.37;100886.48;1693497;84;21205;-77
2022/04/14 07:25:17;;;;;;;3.92;1.92;;;;;;;9.68;55.33;100889.30;1675363;85;21271;-77
2022/04/14 07:27:43;;;;;;;2.98;1.67;;;;;;;9.76;54.84;100886.20;1706690;82;20965;-76
2022/04/14 07:30:12;;;;;;;4.12;1.37;;;;;;;9.80;54.55;100883.86;1718694;82;21059;-79
2022/04/14 07:32:45;;;;;;;4.08;1.60;;;;;;;9.79;54.31;100898.26;1699283;81;20996;-77
2022/04/14 07:35:18;;;;;;;2.75;1.65;;;;;;;9.77;54.44;100896.34;1705182;84;21428;-78
2022/04/14 07:37:45;;;;;;;3.20;1.50;;;;;;;9.77;54.38;100888.34;1694487;82;21652;-79
2022/04/14 07:40:13;;;;;;;4.58;1.50;;;;;;;9.77;54.72;100888.34;1704855;83;21074;-78
2022/04/14 07:42:44;;;;;;;3.20;1.40;;;;;;;9.80;54.82;100884.66;1703399;83;21126;-78
2022/04/14 07:45:12;;;;;;;3.15;1.50;;;;;;;9.86;54.66;100885.02;1699952;82;21039;-76
2022/04/14 07:47:42;;;;;;;3.80;1.47;;;;;;;9.90;54.78;100895.21;1695054;84;20983;-79
2022/04/14 07:50:12;;;;;;;4.75;1.60;;;;;;;9.94;54.66;100886.50;1698597;84;21128;-79
2022/04/14 07:52:57;;;;;;;2.85;1.45;;;;;;;10.01;54.50;100899.13;1704525;84;21007;-78
2022/04/14 07:55:30;;;;;;;4.47;1.50;;;;;;;10.03;54.01;100886.87;1704314;84;21018;-78
2022/04/14 07:58:01;;;;;;;5.40;1.87;;;;;;;10.03;54.15;100885.53;1704561;84;21060;-77
2022/04/14 08:00:28;;;;;;;3.25;1.50;;;;;;;10.06;54.14;100888.52;1706906;82;20995;-77
2022/04/14 08:02:59;;;;;;;3.75;1.37;;;;;;;10.12;53.83;100901.95;1733948;82;21194;-77
2022/04/14 08:05:36;;;;;;;3.62;1.40;;;;;;;10.10;53.53;100888.83;1718684;82;21070;-77
2022/04/14 08:08:05;;;;;;;4.10;1.40;;;;;;;10.06;53.69;100887.71;1675706;83;21099;-78
2022/04/14 08:10:32;;;;;;;4.40;1.47;;;;;;;10.09;53.71;100888.56;1694093;84;21098;-77
2022/04/14 08:12:58;;;;;;;3.27;1.52;;;;;;;10.13;53.64;100891.02;1699524;84;21062;-76
2022/04/14 08:15:26;;;;;;;3.75;1.90;;;;;;;10.17;53.56;100891.33;1666163;86;21119;-77
2022/04/14 08:17:53;;;;;;;3.17;1.47;;;;;;;10.21;53.42;100898.62;1698288;83;21090;-78
2022/04/14 08:20:19;;;;;;;4.20;1.35;;;;;;;10.21;53.27;100894.61;1679603;84;21055;-78
2022/04/14 08:22:57;;;;;;;2.80;1.35;;;;;;;10.24;53.42;100885.31;1692067;84;20999;-79
2022/04/14 08:25:31;;;;;;;3.42;1.20;;;;;;;10.30;53.35;100891.03;1673573;84;21035;-79
2022/04/14 08:28:04;;;;;;;3.83;1.50;;;;;;;10.40;53.43;100891.17;1704345;84;20988;-79
2022/04/14 08:30:34;;;;;;;3.27;1.40;;;;;;;10.46;52.82;100894.19;1667602;84;21254;-78
2022/04/14 08:33:07;;;;;;;3.47;1.30;;;;;;;10.47;52.45;100893.66;1699044;84;21025;-78
2022/04/14 08:35:34;;;;;;;3.22;1.35;;;;;;;10.45;52.27;100889.08;1681202;84;21032;-79
2022/04/14 08:38:06;;;;;;;2.05;1.20;;;;;;;10.45;52.32;100894.42;1667123;86;21011;-78
2022/04/14 08:40:39;;;;;;;2.60;1.37;;;;;;;10.51;52.27;100893.43;1667571;86;21603;-79
2022/04/14 08:43:11;;;;;;;3.62;1.35;;;;;;;10.58;51.96;100902.59;1653637;86;38531;-78
2022/04/14 08:45:47;;;;;;;3.00;1.10;;;;;;;10.68;51.40;100892.83;1695754;83;21046;-78
2022/04/14 08:48:15;;;;;;;2.30;1.10;;;;;;;10.70;50.89;100888.06;1695830;84;21031;-77
2022/04/14 08:50:43;;;;;;;3.80;1.47;;;;;;;10.70;50.89;100885.92;1700213;83;21054;-78
2022/04/14 08:53:11;;;;;;;2.37;1.20;;;;;;;10.71;50.91;100895.54;1716281;82;21050;-77
2022/04/14 08:55:42;;;;;;;2.42;1.30;;;;;;;10.70;50.75;100885.92;1695895;82;21530;-78
2022/04/14 08:58:14;;;;;;;2.10;1.07;;;;;;;10.73;50.55;100882.75;1662574;82;21136;-77
2022/04/14 09:00:41;;;;;;;3.40;1.05;;;;;;;10.74;50.39;100884.36;1639942;87;21613;-78
2022/04/14 09:03:08;;;;;;;2.72;1.20;;;;;;;10.73;50.25;100885.42;1680079;85;21044;-78
2022/04/14 09:05:35;;;;;;;2.58;1.22;;;;;;;10.72;50.02;100885.13;1665711;86;22168;-77
2022/04/14 09:08:04;;;;;;;4.45;1.42;;;;;;;10.67;50.12;100894.44;1615874;86;21062;-75
2022/04/14 09:10:31;;;;;;;3.52;1.20;;;;;;;10.62;50.05;100893.83;1667985;84;21044;-78
2022/04/14 09:12:59;;;;;;;3.47;1.25;;;;;;;10.62;50.25;100885.01;1733821;82;20991;-76
2022/04/14 09:15:32;;;;;;;3.15;1.22;;;;;;;10.67;50.43;100899.77;1666151;86;21603;-75
2022/04/14 09:17:55;;;;;;;1.95;1.05;;;;;;;10.70;50.34;100888.59;1733301;82;21215;-79
2022/04/14 09:20:37;;;;;;;3.02;1.20;;;;;;;10.67;49.95;100893.90;1666428;86;21061;-76
2022/04/14 09:23:26;;;;;;;2.80;1.10;;;;;;;10.66;49.84;100884.78;1734054;82;21549;-77
2022/04/14 09:26:06;;;;;;;2.85;1.20;;;;;;;10.61;49.65;100882.88;1672645;84;21562;-77
2022/04/14 09:28:35;;;;;;;3.50;1.40;;;;;;;10.56;49.73;100893.48;1695280;84;21125;-76
2022/04/14 09:31:11;;;;;;;2.90;1.40;;;;;;;10.55;49.88;100886.00;1681148;84;21112;-79
2022/04/14 09:33:48;;;;;;;2.58;1.20;;;;;;;10.59;49.64;100889.51;1666787;86;20961;-77
2022/04/14 09:36:17;;;;;;;4.60;1.25;;;;;;;10.63;49.63;100891.45;1666477;85;21187;-76
2022/04/14 09:39:01;;;;;;;2.92;1.00;;;;;;;10.72;49.52;100881.12;1666940;85;21107;-77
2022/04/14 09:41:37;;;;;;;2.42;1.07;;;;;;;10.79;48.70;100880.39;1666742;85;21416;-77
2022/04/14 09:44:13;;;;;;;2.30;1.10;;;;;;;10.84;48.29;100878.33;1687419;84;21142;-78
2022/04/14 09:46:45;;;;;;;3.05;1.22;;;;;;;10.87;48.30;100878.63;1695244;84;21261;-78
2022/04/14 09:49:16;;;;;;;;;;;;;;;10.94;48.13;100880.56;1698173;84;21022;-78
2022/04/14 09:51:46;;;;;;;2.00;1.12;;;;;;;11.04;47.78;100875.33;1695517;84;20182;-78
2022/04/14 09:54:17;;;;;;;2.10;1.10;;;;;;;11.11;47.39;100878.33;1673039;84;21024;-78
2022/04/14 09:56:48;;;;;;;2.83;1.10;;;;;;;11.16;47.40;100883.74;1666717;86;21974;-78
2022/04/14 09:59:17;;;;;;;3.47;1.10;;;;;;;11.24;47.21;100878.73;1673936;84;21016;-78
2022/04/14 10:01:44;;;;;;;3.00;1.20;;;;;;;11.36;46.75;100889.28;1666828;84;21042;-77
2022/04/14 10:04:29;;;;;;;2.15;1.10;;;;;;;11.45;46.78;100879.73;1735241;82;20959;-76
2022/04/14 10:07:06;;;;;;;3.52;0.95;;;;;;;11.60;46.73;100867.00;1667838;85;21024;-78
2022/04/14 10:09:39;;;;;;;2.20;1.00;;;;;;;11.83;46.14;100865.83;1667680;86;21055;-78
2022/04/14 10:12:22;;;;;;;2.65;1.20;;;;;;;12.05;45.44;100867.61;1699233;84;21206;-78
2022/04/14 10:15:08;;;;;;;3.70;1.10;;;;;;;12.23;45.30;100871.72;1666384;84;21513;-78
2022/04/14 10:17:40;;;;;;;2.77;1.00;;;;;;;12.39;44.19;100868.84;1696062;84;21445;-78
2022/04/14 10:20:08;;;;;;;3.85;1.00;;;;;;;12.46;42.95;100872.62;1733940;82;21734;-79
2022/04/14 10:22:40;;;;;;;4.23;1.20;;;;;;;12.44;42.53;100870.22;1666623;86;22266;-78
2022/04/14 10:25:09;;;;;;;3.00;1.10;;;;;;;12.46;42.67;100873.16;1733749;82;21320;-77
2022/04/14 10:27:38;;;;;;;1.93;1.10;;;;;;;12.52;42.34;100871.58;1726279;83;20979;-78
2022/04/14 10:30:07;;;;;;;3.37;1.00;;;;;;;12.64;42.39;100871.37;1708048;83;21169;-77
2022/04/14 10:32:35;;;;;;;2.30;0.90;;;;;;;12.75;41.85;100885.06;1699414;84;21243;-77
2022/04/14 10:35:04;;;;;;;1.57;0.80;;;;;;;12.78;40.83;100875.70;1669796;85;21344;-78
2022/04/14 10:37:38;;;;;;;3.53;1.00;;;;;;;12.76;41.09;100869.78;1640058;86;21250;-77
2022/04/14 10:40:08;;;;;;;1.80;0.80;;;;;;;12.75;40.71;100862.28;1639808;86;21259;-77
2022/04/14 10:42:36;;;;;;;1.80;0.80;;;;;;;12.83;40.95;100886.42;1660631;85;21273;-76
2022/04/14 10:45:18;;;;;;;2.30;1.00;;;;;;;12.92;40.02;100882.16;1638451;85;21945;-78
2022/04/14 10:47:54;;;;;;;3.67;0.90;;;;;;;12.95;39.92;100866.09;1671387;85;21189;-76
2022/04/14 10:50:31;;;;;;;3.23;0.90;;;;;;;13.05;39.98;100868.25;1668946;83;22250;-77
2022/04/14 10:53:19;;;;;;;2.67;1.10;;;;;;;13.19;39.19;100855.13;1669700;83;21273;-77
2022/04/14 10:55:48;;;;;;;2.50;1.10;;;;;;;13.27;38.87;100860.55;1667547;84;21190;-78
2022/04/14 10:58:46;;;;;;;2.23;1.00;;;;;;;13.35;38.46;100857.31;1699484;84;21887;-77
2022/04/14 11:01:13;;;;;;;2.63;1.00;;;;;;;13.41;38.28;100864.30;1666137;86;21305;-79
2022/04/14 11:03:48;;;;;;;1.22;0.78;;;;;;;13.47;37.99;100853.03;1693346;83;21258;-78
2022/04/14 11:06:41;;;;;;;2.57;0.97;;;;;;;13.54;37.85;100857.05;1699749;84;21031;-77
2022/04/14 11:09:48;;;;;;;2.13;0.90;;;;;;;13.65;37.69;100864.55;1668051;84;21318;-77
2022/04/14 11:12:21;;;;;;;1.97;0.90;;;;;;;13.79;37.37;100855.43;1667980;86;21255;-76
2022/04/14 11:14:58;;;;;;;1.83;0.97;;;;;;;13.89;36.50;100846.02;1666577;86;21649;-76
2022/04/14 11:17:53;;;;;;;2.20;0.70;;;;;;;13.99;36.84;100852.70;1733764;82;21300;-77
2022/04/14 11:20:38;;;;;;;1.77;0.90;;;;;;;14.11;36.79;100856.41;1666567;86;21305;-77
2022/04/14 11:23:16;;;;;;;3.70;1.10;;;;;;;14.23;35.90;100849.41;1699870;84;21309;-77
2022/04/14 11:25:50;;;;;;;2.73;0.90;;;;;;;14.24;35.64;100853.70;1666521;86;21110;-77
2022/04/14 11:28:31;;;;;;;2.83;1.07;;;;;;;14.28;36.10;100846.69;1667050;86;21198;-77
2022/04/14 11:31:19;;;;;;;2.10;0.95;;;;;;;14.36;36.02;100842.65;1699359;84;21732;-77
2022/04/14 11:33:49;;;;;;;2.10;1.00;;;;;;;14.46;35.53;100845.29;1679316;84;20985;-77
2022/04/14 11:36:25;;;;;;;2.47;1.13;;;;;;;14.51;35.46;100843.42;1666708;86;21270;-76
2022/04/14 11:39:09;;;;;;;3.57;1.00;;;;;;;14.53;35.16;100843.13;1666953;85;21178;-76
2022/04/14 11:41:50;;;;;;;2.30;0.90;;;;;;;14.58;35.89;100851.19;1699730;83;21998;-76
2022/04/14 11:44:32;;;;;;;2.10;1.00;;;;;;;14.69;35.45;100842.52;1667781;86;20969;-77